sensor_id;sensor_type;location;lat;lon;timestamp;temperature;humidity
28763;DHT22;15918;51.270;6.522;2024-02-21T00:00:15;12.20;70.80
28763;DHT22;15918;51.270;6.522;2024-02-21T00:02:41;12.20;70.80
28763;DHT22;15918;51.270;6.522;2024-02-21T00:05:07;12.20;70.80
28763;DHT22;15918;51.270;6.522;2024-02-21T00:07:32;12.20;70.90
28763;DHT22;15918;51.270;6.522;2024-02-21T00:09:58;12.20;71.00
28763;DHT22;15918;51.270;6.522;2024-02-21T00:12:24;12.20;71.00
28763;DHT22;15918;51.270;6.522;2024-02-21T00:14:49;12.20;71.10
28763;DHT22;15918;51.270;6.522;2024-02-21T00:17:15;12.20;71.20
28763;DHT22;15918;51.270;6.522;2024-02-21T00:19:40;12.20;71.20
28763;DHT22;15918;51.270;6.522;2024-02-21T00:22:06;12.20;71.20
28763;DHT22;15918;51.270;6.522;2024-02-21T00:24:32;12.20;71.20
28763;DHT22;15918;51.270;6.522;2024-02-21T00:26:57;12.20;71.30
28763;DHT22;15918;51.270;6.522;2024-02-21T00:29:23;12.20;71.30
28763;DHT22;15918;51.270;6.522;2024-02-21T00:31:49;12.20;71.30
28763;DHT22;15918;51.270;6.522;2024-02-21T00:34:16;12.20;71.30
28763;DHT22;15918;51.270;6.522;2024-02-21T00:36:41;12.20;71.40
28763;DHT22;15918;51.270;6.522;2024-02-21T00:39:07;12.20;71.40
28763;DHT22;15918;51.270;6.522;2024-02-21T00:41:32;12.20;71.40
28763;DHT22;15918;51.270;6.522;2024-02-21T00:43:58;12.20;71.50
28763;DHT22;15918;51.270;6.522;2024-02-21T00:46:24;12.20;71.50
28763;DHT22;15918;51.270;6.522;2024-02-21T00:48:49;12.20;71.40
28763;DHT22;15918;51.270;6.522;2024-02-21T00:51:16;12.20;71.60
28763;DHT22;15918;51.270;6.522;2024-02-21T00:53:42;12.20;71.60
28763;DHT22;15918;51.270;6.522;2024-02-21T00:56:08;12.20;71.50
28763;DHT22;15918;51.270;6.522;2024-02-21T00:58:33;12.20;71.50
28763;DHT22;15918;51.270;6.522;2024-02-21T01:01:00;12.20;71.60
28763;DHT22;15918;51.270;6.522;2024-02-21T01:03:27;12.20;71.50
28763;DHT22;15918;51.270;6.522;2024-02-21T01:05:52;12.20;71.50
28763;DHT22;15918;51.270;6.522;2024-02-21T01:08:18;12.20;71.50
28763;DHT22;15918;51.270;6.522;2024-02-21T01:10:43;12.20;71.60
28763;DHT22;15918;51.270;6.522;2024-02-21T01:13:09;12.20;71.60
28763;DHT22;15918;51.270;6.522;2024-02-21T01:15:34;12.20;71.70
28763;DHT22;15918;51.270;6.522;2024-02-21T01:18:01;12.20;71.60
28763;DHT22;15918;51.270;6.522;2024-02-21T01:20:26;12.20;71.60
28763;DHT22;15918;51.270;6.522;2024-02-21T01:22:52;12.20;71.70
28763;DHT22;15918;51.270;6.522;2024-02-21T01:25:17;12.20;71.70
28763;DHT22;15918;51.270;6.522;2024-02-21T01:27:43;12.20;72.40
28763;DHT22;15918;51.270;6.522;2024-02-21T01:30:09;12.20;71.60
28763;DHT22;15918;51.270;6.522;2024-02-21T01:32:36;12.20;71.60
28763;DHT22;15918;51.270;6.522;2024-02-21T01:35:01;12.20;71.60
28763;DHT22;15918;51.270;6.522;2024-02-21T01:37:27;12.20;71.60
28763;DHT22;15918;51.270;6.522;2024-02-21T01:39:53;12.20;71.70
28763;DHT22;15918;51.270;6.522;2024-02-21T01:42:18;12.20;71.70
28763;DHT22;15918;51.270;6.522;2024-02-21T01:44:44;12.20;71.70
28763;DHT22;15918;51.270;6.522;2024-02-21T01:47:10;12.20;71.80
28763;DHT22;15918;51.270;6.522;2024-02-21T01:49:39;12.20;71.70
28763;DHT22;15918;51.270;6.522;2024-02-21T01:52:05;12.20;71.80
28763;DHT22;15918;51.270;6.522;2024-02-21T01:54:32;12.20;71.80
28763;DHT22;15918;51.270;6.522;2024-02-21T01:56:58;12.20;71.90
28763;DHT22;15918;51.270;6.522;2024-02-21T01:59:23;12.20;71.90
28763;DHT22;15918;51.270;6.522;2024-02-21T02:01:51;12.20;71.90
28763;DHT22;15918;51.270;6.522;2024-02-21T02:04:17;12.20;71.90
28763;DHT22;15918;51.270;6.522;2024-02-21T02:06:42;12.20;72.00
28763;DHT22;15918;51.270;6.522;2024-02-21T02:09:08;12.20;71.90
28763;DHT22;15918;51.270;6.522;2024-02-21T02:11:34;12.30;72.00
28763;DHT22;15918;51.270;6.522;2024-02-21T02:14:00;12.20;72.00
28763;DHT22;15918;51.270;6.522;2024-02-21T02:16:26;12.20;72.00
28763;DHT22;15918;51.270;6.522;2024-02-21T02:18:51;12.20;72.00
28763;DHT22;15918;51.270;6.522;2024-02-21T02:21:29;12.20;72.10
28763;DHT22;15918;51.270;6.522;2024-02-21T02:23:56;12.30;71.90
28763;DHT22;15918;51.270;6.522;2024-02-21T02:26:21;12.20;72.10
28763;DHT22;15918;51.270;6.522;2024-02-21T02:28:47;12.20;72.10
28763;DHT22;15918;51.270;6.522;2024-02-21T02:31:12;12.20;72.10
28763;DHT22;15918;51.270;6.522;2024-02-21T02:33:38;12.20;72.10
28763;DHT22;15918;51.270;6.522;2024-02-21T02:36:04;12.20;72.10
28763;DHT22;15918;51.270;6.522;2024-02-21T02:38:29;12.20;72.00
28763;DHT22;15918;51.270;6.522;2024-02-21T02:40:55;12.20;72.10
28763;DHT22;15918;51.270;6.522;2024-02-21T02:43:21;12.20;72.10
28763;DHT22;15918;51.270;6.522;2024-02-21T02:45:46;12.20;72.00
28763;DHT22;15918;51.270;6.522;2024-02-21T02:48:12;12.20;72.00
28763;DHT22;15918;51.270;6.522;2024-02-21T02:50:37;12.20;72.00
28763;DHT22;15918;51.270;6.522;2024-02-21T02:53:03;12.20;72.00
28763;DHT22;15918;51.270;6.522;2024-02-21T02:55:28;12.30;72.10
28763;DHT22;15918;51.270;6.522;2024-02-21T02:57:54;12.20;72.00
28763;DHT22;15918;51.270;6.522;2024-02-21T03:00:21;12.20;72.00
28763;DHT22;15918;51.270;6.522;2024-02-21T03:02:48;12.20;72.00
28763;DHT22;15918;51.270;6.522;2024-02-21T03:05:16;12.20;72.00
28763;DHT22;15918;51.270;6.522;2024-02-21T03:07:43;12.20;72.00
28763;DHT22;15918;51.270;6.522;2024-02-21T03:10:09;12.20;71.90
28763;DHT22;15918;51.270;6.522;2024-02-21T03:12:35;12.20;71.90
28763;DHT22;15918;51.270;6.522;2024-02-21T03:15:01;12.20;71.90
28763;DHT22;15918;51.270;6.522;2024-02-21T03:17:26;12.20;71.90
28763;DHT22;15918;51.270;6.522;2024-02-21T03:19:55;12.20;71.90
28763;DHT22;15918;51.270;6.522;2024-02-21T03:22:24;12.20;71.90
28763;DHT22;15918;51.270;6.522;2024-02-21T03:24:49;12.20;72.00
28763;DHT22;15918;51.270;6.522;2024-02-21T03:27:15;12.10;71.90
28763;DHT22;15918;51.270;6.522;2024-02-21T03:29:41;12.20;72.00
28763;DHT22;15918;51.270;6.522;2024-02-21T03:32:06;12.10;71.90
28763;DHT22;15918;51.270;6.522;2024-02-21T03:34:32;12.20;72.00
28763;DHT22;15918;51.270;6.522;2024-02-21T03:36:57;12.10;72.00
28763;DHT22;15918;51.270;6.522;2024-02-21T03:39:24;12.10;71.90
28763;DHT22;15918;51.270;6.522;2024-02-21T03:41:50;12.20;72.00
28763;DHT22;15918;51.270;6.522;2024-02-21T03:44:15;12.10;71.90
28763;DHT22;15918;51.270;6.522;2024-02-21T03:46:41;12.10;71.90
28763;DHT22;15918;51.270;6.522;2024-02-21T03:49:07;12.10;71.90
28763;DHT22;15918;51.270;6.522;2024-02-21T03:51:32;12.10;71.90
28763;DHT22;15918;51.270;6.522;2024-02-21T03:53:58;12.10;72.00
28763;DHT22;15918;51.270;6.522;2024-02-21T03:56:23;12.10;72.00
28763;DHT22;15918;51.270;6.522;2024-02-21T03:58:49;12.10;71.90
28763;DHT22;15918;51.270;6.522;2024-02-21T04:01:15;12.10;71.90
28763;DHT22;15918;51.270;6.522;2024-02-21T04:03:45;12.20;72.00
28763;DHT22;15918;51.270;6.522;2024-02-21T04:06:11;12.10;72.00
28763;DHT22;15918;51.270;6.522;2024-02-21T04:08:36;12.10;71.90
28763;DHT22;15918;51.270;6.522;2024-02-21T04:11:02;12.20;72.00
28763;DHT22;15918;51.270;6.522;2024-02-21T04:13:28;12.10;71.90
28763;DHT22;15918;51.270;6.522;2024-02-21T04:15:53;12.10;72.00
28763;DHT22;15918;51.270;6.522;2024-02-21T04:18:19;12.20;72.00
28763;DHT22;15918;51.270;6.522;2024-02-21T04:20:45;12.10;72.00
28763;DHT22;15918;51.270;6.522;2024-02-21T04:23:10;12.10;72.00
28763;DHT22;15918;51.270;6.522;2024-02-21T04:25:36;12.20;72.10
28763;DHT22;15918;51.270;6.522;2024-02-21T04:28:02;12.10;72.00
28763;DHT22;15918;51.270;6.522;2024-02-21T04:30:28;12.20;72.00
28763;DHT22;15918;51.270;6.522;2024-02-21T04:32:54;12.20;72.10
28763;DHT22;15918;51.270;6.522;2024-02-21T04:35:20;12.20;72.20
28763;DHT22;15918;51.270;6.522;2024-02-21T04:37:45;12.20;72.20
28763;DHT22;15918;51.270;6.522;2024-02-21T04:40:11;12.10;72.10
28763;DHT22;15918;51.270;6.522;2024-02-21T04:42:36;12.20;72.00
28763;DHT22;15918;51.270;6.522;2024-02-21T04:45:02;12.10;72.10
28763;DHT22;15918;51.270;6.522;2024-02-21T04:47:28;12.10;72.10
28763;DHT22;15918;51.270;6.522;2024-02-21T04:49:54;12.10;72.10
28763;DHT22;15918;51.270;6.522;2024-02-21T04:52:19;12.20;72.20
28763;DHT22;15918;51.270;6.522;2024-02-21T04:54:45;12.20;72.20
28763;DHT22;15918;51.270;6.522;2024-02-21T04:57:10;12.20;72.20
28763;DHT22;15918;51.270;6.522;2024-02-21T04:59:36;12.10;72.20
28763;DHT22;15918;51.270;6.522;2024-02-21T05:02:02;12.10;72.20
28763;DHT22;15918;51.270;6.522;2024-02-21T05:04:28;12.20;72.20
28763;DHT22;15918;51.270;6.522;2024-02-21T05:06:53;12.10;72.20
28763;DHT22;15918;51.270;6.522;2024-02-21T05:09:20;12.20;72.20
28763;DHT22;15918;51.270;6.522;2024-02-21T05:11:45;12.10;72.10
28763;DHT22;15918;51.270;6.522;2024-02-21T05:14:11;12.20;72.20
28763;DHT22;15918;51.270;6.522;2024-02-21T05:16:36;12.10;72.10
28763;DHT22;15918;51.270;6.522;2024-02-21T05:19:03;12.10;72.10
28763;DHT22;15918;51.270;6.522;2024-02-21T05:21:29;12.20;72.20
28763;DHT22;15918;51.270;6.522;2024-02-21T05:23:55;12.10;72.10
28763;DHT22;15918;51.270;6.522;2024-02-21T05:26:24;12.20;72.10
28763;DHT22;15918;51.270;6.522;2024-02-21T05:28:51;12.20;72.00
28763;DHT22;15918;51.270;6.522;2024-02-21T05:31:20;12.20;72.10
28763;DHT22;15918;51.270;6.522;2024-02-21T05:33:46;12.20;72.00
28763;DHT22;15918;51.270;6.522;2024-02-21T05:36:12;12.10;72.00
28763;DHT22;15918;51.270;6.522;2024-02-21T05:38:39;12.10;72.00
28763;DHT22;15918;51.270;6.522;2024-02-21T05:41:04;12.10;72.00
28763;DHT22;15918;51.270;6.522;2024-02-21T05:43:30;12.10;72.10
28763;DHT22;15918;51.270;6.522;2024-02-21T05:45:56;12.10;72.10
28763;DHT22;15918;51.270;6.522;2024-02-21T05:48:22;12.10;72.10
28763;DHT22;15918;51.270;6.522;2024-02-21T05:50:48;12.10;72.00
28763;DHT22;15918;51.270;6.522;2024-02-21T05:53:14;12.10;72.00
28763;DHT22;15918;51.270;6.522;2024-02-21T05:55:40;12.10;72.00
28763;DHT22;15918;51.270;6.522;2024-02-21T05:58:06;12.10;71.90
28763;DHT22;15918;51.270;6.522;2024-02-21T06:00:32;12.10;71.90
28763;DHT22;15918;51.270;6.522;2024-02-21T06:02:58;12.10;72.00
28763;DHT22;15918;51.270;6.522;2024-02-21T06:05:24;12.10;71.90
28763;DHT22;15918;51.270;6.522;2024-02-21T06:07:49;12.10;71.90
28763;DHT22;15918;51.270;6.522;2024-02-21T06:10:15;12.10;72.00
28763;DHT22;15918;51.270;6.522;2024-02-21T06:12:41;12.10;71.90
28763;DHT22;15918;51.270;6.522;2024-02-21T06:15:07;12.10;71.90
28763;DHT22;15918;51.270;6.522;2024-02-21T06:17:33;12.10;71.90
28763;DHT22;15918;51.270;6.522;2024-02-21T06:19:58;12.10;71.90
28763;DHT22;15918;51.270;6.522;2024-02-21T06:22:24;12.10;71.90
28763;DHT22;15918;51.270;6.522;2024-02-21T06:24:49;12.10;71.90
28763;DHT22;15918;51.270;6.522;2024-02-21T06:27:15;12.10;71.90
28763;DHT22;15918;51.270;6.522;2024-02-21T06:29:41;12.10;71.90
28763;DHT22;15918;51.270;6.522;2024-02-21T06:32:07;12.10;71.90
28763;DHT22;15918;51.270;6.522;2024-02-21T06:34:33;12.10;71.90
28763;DHT22;15918;51.270;6.522;2024-02-21T06:36:58;12.10;71.90
28763;DHT22;15918;51.270;6.522;2024-02-21T06:39:24;12.10;71.90
28763;DHT22;15918;51.270;6.522;2024-02-21T06:41:50;12.10;72.70
28763;DHT22;15918;51.270;6.522;2024-02-21T06:44:19;12.10;72.00
28763;DHT22;15918;51.270;6.522;2024-02-21T06:46:44;12.10;71.90
28763;DHT22;15918;51.270;6.522;2024-02-21T06:49:10;12.10;71.90
28763;DHT22;15918;51.270;6.522;2024-02-21T06:51:42;12.10;71.90
28763;DHT22;15918;51.270;6.522;2024-02-21T06:54:08;12.10;72.00
28763;DHT22;15918;51.270;6.522;2024-02-21T06:56:33;12.10;72.00
28763;DHT22;15918;51.270;6.522;2024-02-21T06:58:59;12.10;71.90
28763;DHT22;15918;51.270;6.522;2024-02-21T07:01:24;12.10;71.90
28763;DHT22;15918;51.270;6.522;2024-02-21T07:03:50;12.10;71.90
28763;DHT22;15918;51.270;6.522;2024-02-21T07:06:16;12.10;71.90
28763;DHT22;15918;51.270;6.522;2024-02-21T07:08:42;12.20;72.00
28763;DHT22;15918;51.270;6.522;2024-02-21T07:11:07;12.10;72.00
28763;DHT22;15918;51.270;6.522;2024-02-21T07:13:33;12.10;71.90
28763;DHT22;15918;51.270;6.522;2024-02-21T07:15:59;12.10;71.80
28763;DHT22;15918;51.270;6.522;2024-02-21T07:18:24;12.10;71.80
28763;DHT22;15918;51.270;6.522;2024-02-21T07:20:53;12.10;71.80
28763;DHT22;15918;51.270;6.522;2024-02-21T07:23:19;12.10;71.70
28763;DHT22;15918;51.270;6.522;2024-02-21T07:25:44;12.10;71.70
28763;DHT22;15918;51.270;6.522;2024-02-21T07:28:10;12.10;71.50
28763;DHT22;15918;51.270;6.522;2024-02-21T07:30:36;12.10;71.50
28763;DHT22;15918;51.270;6.522;2024-02-21T07:33:02;12.10;72.10
28763;DHT22;15918;51.270;6.522;2024-02-21T07:35:28;12.10;71.30
28763;DHT22;15918;51.270;6.522;2024-02-21T07:37:53;12.10;71.40
28763;DHT22;15918;51.270;6.522;2024-02-21T07:40:19;12.10;71.50
28763;DHT22;15918;51.270;6.522;2024-02-21T07:42:45;12.00;71.40
28763;DHT22;15918;51.270;6.522;2024-02-21T07:45:10;12.00;71.60
28763;DHT22;15918;51.270;6.522;2024-02-21T07:47:37;12.10;71.30
28763;DHT22;15918;51.270;6.522;2024-02-21T07:50:03;12.00;71.30
28763;DHT22;15918;51.270;6.522;2024-02-21T07:52:29;12.10;71.40
28763;DHT22;15918;51.270;6.522;2024-02-21T07:54:54;12.10;71.40
28763;DHT22;15918;51.270;6.522;2024-02-21T07:57:20;12.00;71.40
28763;DHT22;15918;51.270;6.522;2024-02-21T07:59:46;12.10;71.50
28763;DHT22;15918;51.270;6.522;2024-02-21T08:02:16;12.00;71.60
28763;DHT22;15918;51.270;6.522;2024-02-21T08:04:42;12.00;71.70
28763;DHT22;15918;51.270;6.522;2024-02-21T08:07:08;12.00;71.80
28763;DHT22;15918;51.270;6.522;2024-02-21T08:09:34;12.10;71.90
28763;DHT22;15918;51.270;6.522;2024-02-21T08:12:00;12.00;71.90
28763;DHT22;15918;51.270;6.522;2024-02-21T08:14:26;12.00;71.90
28763;DHT22;15918;51.270;6.522;2024-02-21T08:16:52;12.00;71.90
28763;DHT22;15918;51.270;6.522;2024-02-21T08:19:21;12.00;72.70
28763;DHT22;15918;51.270;6.522;2024-02-21T08:21:48;12.00;71.80
28763;DHT22;15918;51.270;6.522;2024-02-21T08:24:16;12.10;71.80
28763;DHT22;15918;51.270;6.522;2024-02-21T08:26:43;12.00;71.60
28763;DHT22;15918;51.270;6.522;2024-02-21T08:29:10;12.10;71.60
28763;DHT22;15918;51.270;6.522;2024-02-21T08:31:35;12.00;71.60
28763;DHT22;15918;51.270;6.522;2024-02-21T08:34:01;12.00;71.40
28763;DHT22;15918;51.270;6.522;2024-02-21T08:36:30;12.00;71.00
28763;DHT22;15918;51.270;6.522;2024-02-21T08:38:56;12.00;70.80
28763;DHT22;15918;51.270;6.522;2024-02-21T08:41:23;12.00;70.80
28763;DHT22;15918;51.270;6.522;2024-02-21T08:43:51;12.00;70.70
28763;DHT22;15918;51.270;6.522;2024-02-21T08:46:17;12.00;70.50
28763;DHT22;15918;51.270;6.522;2024-02-21T08:48:43;12.00;70.40
28763;DHT22;15918;51.270;6.522;2024-02-21T08:51:09;12.00;70.30
28763;DHT22;15918;51.270;6.522;2024-02-21T08:53:35;12.00;70.40
28763;DHT22;15918;51.270;6.522;2024-02-21T08:56:00;12.00;70.40
28763;DHT22;15918;51.270;6.522;2024-02-21T08:58:26;12.00;70.40
28763;DHT22;15918;51.270;6.522;2024-02-21T09:00:52;12.00;70.30
28763;DHT22;15918;51.270;6.522;2024-02-21T09:03:17;12.00;70.20
28763;DHT22;15918;51.270;6.522;2024-02-21T09:05:45;12.00;70.10
28763;DHT22;15918;51.270;6.522;2024-02-21T09:08:11;12.00;70.20
28763;DHT22;15918;51.270;6.522;2024-02-21T09:10:36;12.00;70.00
28763;DHT22;15918;51.270;6.522;2024-02-21T09:13:02;12.00;70.20
28763;DHT22;15918;51.270;6.522;2024-02-21T09:15:29;12.00;70.20
28763;DHT22;15918;51.270;6.522;2024-02-21T09:17:54;12.00;70.20
28763;DHT22;15918;51.270;6.522;2024-02-21T09:20:20;12.00;70.10
28763;DHT22;15918;51.270;6.522;2024-02-21T09:22:46;12.00;70.20
28763;DHT22;15918;51.270;6.522;2024-02-21T09:25:11;12.00;70.20
28763;DHT22;15918;51.270;6.522;2024-02-21T09:27:39;12.00;70.10
28763;DHT22;15918;51.270;6.522;2024-02-21T09:30:06;12.10;70.20
28763;DHT22;15918;51.270;6.522;2024-02-21T09:32:31;12.10;70.10
28763;DHT22;15918;51.270;6.522;2024-02-21T09:35:00;12.10;70.10
28763;DHT22;15918;51.270;6.522;2024-02-21T09:37:25;12.10;70.90
28763;DHT22;15918;51.270;6.522;2024-02-21T09:39:51;12.00;70.00
28763;DHT22;15918;51.270;6.522;2024-02-21T09:42:20;12.00;69.80
28763;DHT22;15918;51.270;6.522;2024-02-21T09:44:46;12.10;69.80
28763;DHT22;15918;51.270;6.522;2024-02-21T09:47:33;12.10;69.90
28763;DHT22;15918;51.270;6.522;2024-02-21T09:50:01;12.20;69.70
28763;DHT22;15918;51.270;6.522;2024-02-21T09:52:28;12.10;70.20
28763;DHT22;15918;51.270;6.522;2024-02-21T09:54:54;12.10;70.10
28763;DHT22;15918;51.270;6.522;2024-02-21T09:57:20;12.10;70.00
28763;DHT22;15918;51.270;6.522;2024-02-21T09:59:48;12.10;69.80
28763;DHT22;15918;51.270;6.522;2024-02-21T10:02:15;12.10;69.90
28763;DHT22;15918;51.270;6.522;2024-02-21T10:04:41;12.10;69.80
28763;DHT22;15918;51.270;6.522;2024-02-21T10:07:07;12.10;69.90
28763;DHT22;15918;51.270;6.522;2024-02-21T10:09:33;12.10;69.80
28763;DHT22;15918;51.270;6.522;2024-02-21T10:12:11;12.20;69.90
28763;DHT22;15918;51.270;6.522;2024-02-21T10:14:38;12.20;69.80
28763;DHT22;15918;51.270;6.522;2024-02-21T10:17:03;12.20;70.10
28763;DHT22;15918;51.270;6.522;2024-02-21T10:19:34;12.20;70.00
28763;DHT22;15918;51.270;6.522;2024-02-21T10:22:02;12.20;70.00
28763;DHT22;15918;51.270;6.522;2024-02-21T10:24:29;12.20;70.00
28763;DHT22;15918;51.270;6.522;2024-02-21T10:27:06;12.10;69.90
28763;DHT22;15918;51.270;6.522;2024-02-21T10:29:34;12.20;69.80
28763;DHT22;15918;51.270;6.522;2024-02-21T10:32:09;12.20;69.90
28763;DHT22;15918;51.270;6.522;2024-02-21T10:34:37;12.20;69.80
28763;DHT22;15918;51.270;6.522;2024-02-21T10:37:07;12.20;69.80
28763;DHT22;15918;51.270;6.522;2024-02-21T10:39:34;12.20;69.80
28763;DHT22;15918;51.270;6.522;2024-02-21T10:42:02;12.20;69.80
28763;DHT22;15918;51.270;6.522;2024-02-21T10:44:34;12.20;69.70
28763;DHT22;15918;51.270;6.522;2024-02-21T10:47:07;12.30;69.80
28763;DHT22;15918;51.270;6.522;2024-02-21T10:49:39;12.20;69.70
28763;DHT22;15918;51.270;6.522;2024-02-21T10:52:13;12.20;69.70
28763;DHT22;15918;51.270;6.522;2024-02-21T10:54:58;12.30;69.70
28763;DHT22;15918;51.270;6.522;2024-02-21T10:57:26;12.30;69.70
28763;DHT22;15918;51.270;6.522;2024-02-21T10:59:55;12.20;69.70
28763;DHT22;15918;51.270;6.522;2024-02-21T11:02:24;12.20;69.70
28763;DHT22;15918;51.270;6.522;2024-02-21T11:04:50;12.30;69.70
28763;DHT22;15918;51.270;6.522;2024-02-21T11:07:18;12.30;69.60
28763;DHT22;15918;51.270;6.522;2024-02-21T11:09:51;12.30;69.60
28763;DHT22;15918;51.270;6.522;2024-02-21T11:12:21;12.30;69.50
28763;DHT22;15918;51.270;6.522;2024-02-21T11:14:47;12.30;69.50
28763;DHT22;15918;51.270;6.522;2024-02-21T11:17:19;12.30;69.50
28763;DHT22;15918;51.270;6.522;2024-02-21T11:19:46;12.30;69.50
28763;DHT22;15918;51.270;6.522;2024-02-21T11:22:17;12.30;69.50
28763;DHT22;15918;51.270;6.522;2024-02-21T11:24:43;12.30;69.50
28763;DHT22;15918;51.270;6.522;2024-02-21T11:27:22;12.30;69.30
28763;DHT22;15918;51.270;6.522;2024-02-21T11:29:56;12.40;69.00
28763;DHT22;15918;51.270;6.522;2024-02-21T11:32:22;12.30;69.50
28763;DHT22;15918;51.270;6.522;2024-02-21T11:34:57;12.40;69.20
28763;DHT22;15918;51.270;6.522;2024-02-21T11:37:27;12.30;68.90
28763;DHT22;15918;51.270;6.522;2024-02-21T11:39:57;12.40;69.20
28763;DHT22;15918;51.270;6.522;2024-02-21T11:42:25;12.40;69.20
28763;DHT22;15918;51.270;6.522;2024-02-21T11:44:51;12.30;69.00
28763;DHT22;15918;51.270;6.522;2024-02-21T11:47:16;12.40;69.00
28763;DHT22;15918;51.270;6.522;2024-02-21T11:49:47;12.40;69.00
28763;DHT22;15918;51.270;6.522;2024-02-21T11:52:14;12.40;68.80
28763;DHT22;15918;51.270;6.522;2024-02-21T11:54:41;12.40;68.70
28763;DHT22;15918;51.270;6.522;2024-02-21T11:57:07;12.40;68.80
28763;DHT22;15918;51.270;6.522;2024-02-21T11:59:33;12.40;68.70
28763;DHT22;15918;51.270;6.522;2024-02-21T12:02:00;12.40;68.70
28763;DHT22;15918;51.270;6.522;2024-02-21T12:04:27;12.40;68.60
28763;DHT22;15918;51.270;6.522;2024-02-21T12:06:53;12.40;68.60
28763;DHT22;15918;51.270;6.522;2024-02-21T12:09:23;12.50;68.60
28763;DHT22;15918;51.270;6.522;2024-02-21T12:12:03;12.40;68.40
28763;DHT22;15918;51.270;6.522;2024-02-21T12:14:31;12.50;68.40
28763;DHT22;15918;51.270;6.522;2024-02-21T12:16:57;12.50;68.60
28763;DHT22;15918;51.270;6.522;2024-02-21T12:19:22;12.50;68.50
28763;DHT22;15918;51.270;6.522;2024-02-21T12:21:49;12.50;68.40
28763;DHT22;15918;51.270;6.522;2024-02-21T12:24:24;12.50;68.30
28763;DHT22;15918;51.270;6.522;2024-02-21T12:26:51;12.50;68.30
28763;DHT22;15918;51.270;6.522;2024-02-21T12:29:18;12.50;68.40
28763;DHT22;15918;51.270;6.522;2024-02-21T12:31:44;12.50;68.30
28763;DHT22;15918;51.270;6.522;2024-02-21T12:34:10;12.50;68.30
28763;DHT22;15918;51.270;6.522;2024-02-21T12:36:43;12.60;68.30
28763;DHT22;15918;51.270;6.522;2024-02-21T12:39:10;12.60;68.30
28763;DHT22;15918;51.270;6.522;2024-02-21T12:41:36;12.60;68.30
28763;DHT22;15918;51.270;6.522;2024-02-21T12:44:04;12.60;68.20
28763;DHT22;15918;51.270;6.522;2024-02-21T12:46:35;12.60;68.10
28763;DHT22;15918;51.270;6.522;2024-02-21T12:49:04;12.60;68.00
28763;DHT22;15918;51.270;6.522;2024-02-21T12:51:33;12.60;68.00
28763;DHT22;15918;51.270;6.522;2024-02-21T12:53:59;12.60;68.00
28763;DHT22;15918;51.270;6.522;2024-02-21T12:56:25;12.70;68.00
28763;DHT22;15918;51.270;6.522;2024-02-21T12:58:53;12.70;67.90
28763;DHT22;15918;51.270;6.522;2024-02-21T13:01:19;12.70;68.00
28763;DHT22;15918;51.270;6.522;2024-02-21T13:03:44;12.70;68.00
28763;DHT22;15918;51.270;6.522;2024-02-21T13:06:12;12.70;68.10
28763;DHT22;15918;51.270;6.522;2024-02-21T13:08:37;12.70;68.00
28763;DHT22;15918;51.270;6.522;2024-02-21T13:11:04;12.70;68.00
28763;DHT22;15918;51.270;6.522;2024-02-21T13:13:30;12.70;67.90
28763;DHT22;15918;51.270;6.522;2024-02-21T13:15:57;12.80;68.10
28763;DHT22;15918;51.270;6.522;2024-02-21T13:18:22;12.80;68.00
28763;DHT22;15918;51.270;6.522;2024-02-21T13:20:48;12.80;67.90
28763;DHT22;15918;51.270;6.522;2024-02-21T13:23:13;12.80;67.80
28763;DHT22;15918;51.270;6.522;2024-02-21T13:25:39;12.80;67.90
28763;DHT22;15918;51.270;6.522;2024-02-21T13:28:04;12.80;67.80
28763;DHT22;15918;51.270;6.522;2024-02-21T13:30:30;12.80;67.70
28763;DHT22;15918;51.270;6.522;2024-02-21T13:32:56;12.80;67.70
28763;DHT22;15918;51.270;6.522;2024-02-21T13:35:22;12.80;67.50
28763;DHT22;15918;51.270;6.522;2024-02-21T13:37:47;12.80;67.40
28763;DHT22;15918;51.270;6.522;2024-02-21T13:40:13;12.90;67.40
28763;DHT22;15918;51.270;6.522;2024-02-21T13:42:39;12.80;67.30
28763;DHT22;15918;51.270;6.522;2024-02-21T13:45:06;12.80;67.30
28763;DHT22;15918;51.270;6.522;2024-02-21T13:47:32;12.80;67.40
28763;DHT22;15918;51.270;6.522;2024-02-21T13:49:59;12.80;67.30
28763;DHT22;15918;51.270;6.522;2024-02-21T13:52:24;12.90;67.20
28763;DHT22;15918;51.270;6.522;2024-02-21T13:54:53;12.80;67.10
28763;DHT22;15918;51.270;6.522;2024-02-21T13:57:18;12.80;67.00
28763;DHT22;15918;51.270;6.522;2024-02-21T13:59:44;12.90;67.20
28763;DHT22;15918;51.270;6.522;2024-02-21T14:02:10;12.90;67.20
28763;DHT22;15918;51.270;6.522;2024-02-21T14:04:35;12.90;67.20
28763;DHT22;15918;51.270;6.522;2024-02-21T14:07:01;12.90;67.40
28763;DHT22;15918;51.270;6.522;2024-02-21T14:09:27;12.90;67.40
28763;DHT22;15918;51.270;6.522;2024-02-21T14:11:55;13.00;67.50
28763;DHT22;15918;51.270;6.522;2024-02-21T14:14:21;12.90;67.40
28763;DHT22;15918;51.270;6.522;2024-02-21T14:16:46;12.90;67.40
28763;DHT22;15918;51.270;6.522;2024-02-21T14:19:15;13.00;67.50
28763;DHT22;15918;51.270;6.522;2024-02-21T14:21:40;13.00;67.50
28763;DHT22;15918;51.270;6.522;2024-02-21T14:24:06;13.00;67.50
28763;DHT22;15918;51.270;6.522;2024-02-21T14:26:32;13.00;67.40
28763;DHT22;15918;51.270;6.522;2024-02-21T14:28:58;13.10;67.40
28763;DHT22;15918;51.270;6.522;2024-02-21T14:31:24;13.00;68.00
28763;DHT22;15918;51.270;6.522;2024-02-21T14:33:50;13.00;67.20
28763;DHT22;15918;51.270;6.522;2024-02-21T14:36:16;13.00;67.20
28763;DHT22;15918;51.270;6.522;2024-02-21T14:38:42;13.00;67.20
28763;DHT22;15918;51.270;6.522;2024-02-21T14:41:09;13.00;67.30
28763;DHT22;15918;51.270;6.522;2024-02-21T14:43:37;13.00;67.20
28763;DHT22;15918;51.270;6.522;2024-02-21T14:46:03;13.00;67.10
28763;DHT22;15918;51.270;6.522;2024-02-21T14:48:30;13.10;67.10
28763;DHT22;15918;51.270;6.522;2024-02-21T14:51:00;13.00;67.00
28763;DHT22;15918;51.270;6.522;2024-02-21T14:53:26;13.10;67.10
28763;DHT22;15918;51.270;6.522;2024-02-21T14:55:51;13.10;67.10
28763;DHT22;15918;51.270;6.522;2024-02-21T14:58:17;13.10;67.00
28763;DHT22;15918;51.270;6.522;2024-02-21T15:00:45;13.10;67.00
28763;DHT22;15918;51.270;6.522;2024-02-21T15:03:12;13.10;66.90
28763;DHT22;15918;51.270;6.522;2024-02-21T15:05:40;13.10;66.80
28763;DHT22;15918;51.270;6.522;2024-02-21T15:08:06;13.10;66.70
28763;DHT22;15918;51.270;6.522;2024-02-21T15:10:33;13.10;66.50
28763;DHT22;15918;51.270;6.522;2024-02-21T15:12:59;13.10;66.60
28763;DHT22;15918;51.270;6.522;2024-02-21T15:15:25;13.10;66.60
28763;DHT22;15918;51.270;6.522;2024-02-21T15:17:50;13.10;66.60
28763;DHT22;15918;51.270;6.522;2024-02-21T15:20:16;13.10;66.60
28763;DHT22;15918;51.270;6.522;2024-02-21T15:22:41;13.10;66.50
28763;DHT22;15918;51.270;6.522;2024-02-21T15:25:07;13.10;66.30